createdAt,value
2023-04-26T00:13:14.226Z,4.5
2023-04-26T00:28:23.905Z,4.4
2023-04-26T00:43:33.585Z,4.3
2023-04-26T00:58:42.821Z,4.1
2023-04-26T01:13:52.501Z,3.9
2023-04-26T01:29:02.206Z,3.7
2023-04-26T01:44:11.650Z,3.5
2023-04-26T01:59:20.461Z,3.5
2023-04-26T02:14:30.085Z,3.4
2023-04-26T02:29:44.063Z,3.4
2023-04-26T02:44:54.954Z,3.3
2023-04-26T03:00:04.946Z,3.2
2023-04-26T03:15:13.430Z,3
2023-04-26T03:30:23.378Z,3
2023-04-26T03:45:32.972Z,2.9
2023-04-26T04:00:42.943Z,2.8
2023-04-26T04:15:52.570Z,2.9
2023-04-26T04:31:02.277Z,3.1
2023-04-26T04:46:12.914Z,3.2
2023-04-26T05:01:23.317Z,3.3
2023-04-26T05:16:33.178Z,3.4
2023-04-26T05:31:42.269Z,3.5
2023-04-26T05:46:52.197Z,3.9
2023-04-26T06:02:02.505Z,4
2023-04-26T06:17:13.384Z,4.3
2023-04-26T06:32:24.607Z,4.5
2023-04-26T06:47:34.837Z,4.9
2023-04-26T07:02:44.836Z,5.3
2023-04-26T07:17:55.314Z,5.7
2023-04-26T07:33:11.920Z,6.3
2023-04-26T07:48:23.341Z,6.6
2023-04-26T08:03:34.112Z,6.9
2023-04-26T08:18:46.870Z,7.2
2023-04-26T08:33:57.170Z,7.4
2023-04-26T08:49:06.936Z,7.8
2023-04-26T09:04:17.445Z,8.2
2023-04-26T09:19:28.257Z,8.3
2023-04-26T09:34:38.796Z,8.4
2023-04-26T09:49:49.312Z,8.6
2023-04-26T10:04:59.404Z,8.9
2023-04-26T10:20:11.401Z,9.2
2023-04-26T10:35:21.324Z,9.4
2023-04-26T10:50:31.141Z,9.7
2023-04-26T11:05:40.949Z,9.6
2023-04-26T11:20:50.168Z,9.6
2023-04-26T11:36:00.345Z,10.2
2023-04-26T11:51:12.073Z,10.4
2023-04-26T12:06:22.266Z,10.4
2023-04-26T12:21:32.722Z,10.1
2023-04-26T12:36:42.051Z,10
2023-04-26T12:51:51.800Z,10.1
2023-04-26T13:07:01.050Z,9.9
2023-04-26T13:22:12.934Z,9.9
2023-04-26T13:37:23.081Z,10
2023-04-26T13:52:33.020Z,10.6
2023-04-26T14:07:44.537Z,11.8
2023-04-26T14:22:53.535Z,10.9
2023-04-26T14:38:02.622Z,10.5
2023-04-26T14:53:12.183Z,10.4
2023-04-26T15:08:22.290Z,10.3
2023-04-26T15:23:31.661Z,10.1
2023-04-26T15:38:41.040Z,9.8
2023-04-26T15:53:50.730Z,9.8
2023-04-26T16:09:00.389Z,9.7
2023-04-26T16:24:14.384Z,9.7
2023-04-26T16:39:24.357Z,9.6
2023-04-26T16:54:33.710Z,9.5
2023-04-26T17:09:43.075Z,9.3
2023-04-26T17:24:52.183Z,9.1
2023-04-26T17:40:02.226Z,8.9
2023-04-26T17:55:12.596Z,8.9
2023-04-26T18:10:22.082Z,9
2023-04-26T18:25:31.895Z,8.9
2023-04-26T18:40:41.103Z,8.9
2023-04-26T18:55:50.883Z,8.8
2023-04-26T19:10:59.952Z,8.7
2023-04-26T19:26:12.849Z,8.7
2023-04-26T19:42:41.882Z,8.9
2023-04-26T19:57:52.327Z,8.4
2023-04-26T20:13:01.953Z,8.3
2023-04-26T20:28:12.407Z,8.3
2023-04-26T20:43:23.107Z,8.1
2023-04-26T20:58:32.594Z,8
2023-04-26T21:13:42.472Z,7.9
2023-04-26T21:28:52.463Z,7.8
2023-04-26T21:44:01.904Z,7.7
2023-04-26T21:59:12.551Z,7.5
2023-04-26T22:14:22.871Z,7.5
2023-04-26T22:29:32.282Z,7.4
2023-04-26T22:44:41.864Z,7.3
2023-04-26T22:59:51.416Z,7.3
2023-04-26T23:15:01.319Z,7.3
2023-04-26T23:30:12.746Z,7.3
2023-04-26T23:45:22.421Z,7.4
